createdAt,value
2019-01-13T00:00:15.906Z,99779.95
2019-01-13T00:02:44.471Z,99780.28
2019-01-13T00:05:13.279Z,99775.16
2019-01-13T00:07:41.759Z,99773.50
2019-01-13T00:10:10.295Z,99768.70
2019-01-13T00:12:38.853Z,99775.62
2019-01-13T00:15:09.369Z,99765.06
2019-01-13T00:17:37.810Z,99765.23
2019-01-13T00:20:09.011Z,99771.18
2019-01-13T00:22:37.720Z,99781.59
2019-01-13T00:25:06.664Z,99771.19
2019-01-13T00:27:35.180Z,99768.70
2019-01-13T00:30:21.963Z,99777.64
2019-01-13T00:32:45.774Z,99769.84
2019-01-13T00:35:14.335Z,99773.65
2019-01-13T00:37:43.447Z,99774.33
2019-01-13T00:40:15.273Z,99780.28
2019-01-13T00:42:44.099Z,99779.64
2019-01-13T00:45:13.884Z,99788.22
2019-01-13T00:47:42.601Z,99788.38
2019-01-13T00:50:15.027Z,99785.57
2019-01-13T00:52:44.583Z,99783.62
2019-01-13T00:55:15.288Z,99788.91
2019-01-13T00:57:46.199Z,99790.72
2019-01-13T01:00:28.814Z,99787.60
2019-01-13T01:02:57.878Z,99788.59
2019-01-13T01:05:26.442Z,99780.32
2019-01-13T01:07:55.397Z,99787.59
2019-01-13T01:10:26.579Z,99774.70
2019-01-13T01:12:58.619Z,99772.72
2019-01-13T01:15:27.238Z,99772.05
2019-01-13T01:17:55.879Z,99769.08
2019-01-13T01:20:24.707Z,99782.28
2019-01-13T01:22:53.255Z,99779.00
2019-01-13T01:25:21.888Z,99775.50
2019-01-13T01:27:50.697Z,99775.20
2019-01-13T01:30:20.138Z,99779.98
2019-01-13T01:32:49.231Z,99782.62
2019-01-13T01:35:18.396Z,99775.02
2019-01-13T01:37:47.235Z,99776.80
2019-01-13T01:40:17.668Z,99778.30
2019-01-13T01:42:46.267Z,99788.23
2019-01-13T01:45:16.975Z,99787.25
2019-01-13T01:47:45.620Z,99795.52
2019-01-13T01:50:14.233Z,99799.31
2019-01-13T01:52:42.827Z,99793.87
2019-01-13T01:55:13.763Z,99798.13
2019-01-13T01:57:42.273Z,99799.47
2019-01-13T02:00:13.873Z,99804.41
2019-01-13T02:02:42.552Z,99809.05
2019-01-13T02:05:11.128Z,99795.16
2019-01-13T02:07:39.689Z,99793.16
2019-01-13T02:10:11.580Z,99799.45
2019-01-13T02:12:53.772Z,99795.31
2019-01-13T02:15:34.873Z,99796.64
2019-01-13T02:18:03.538Z,99803.75
2019-01-13T02:20:32.232Z,99794.82
2019-01-13T02:23:00.783Z,99798.62
2019-01-13T02:25:29.583Z,99798.45
2019-01-13T02:27:58.102Z,99805.09
2019-01-13T02:30:27.628Z,99799.30
2019-01-13T02:32:56.385Z,99800.95
2019-01-13T02:35:25.002Z,99799.16
2019-01-13T02:37:53.606Z,99799.16
2019-01-13T02:40:22.457Z,99800.46
2019-01-13T02:42:51.523Z,99793.53
2019-01-13T02:45:22.546Z,99787.58
2019-01-13T02:47:50.997Z,99790.89
2019-01-13T02:50:19.519Z,99785.76
2019-01-13T02:52:48.052Z,99791.86
2019-01-13T02:55:16.558Z,99791.53
2019-01-13T02:57:45.100Z,99791.03
2019-01-13T03:00:21.618Z,99791.53
2019-01-13T03:02:50.534Z,99790.03
2019-01-13T03:05:19.180Z,99786.44
2019-01-13T03:07:47.750Z,99783.95
2019-01-13T03:10:18.608Z,99779.64
2019-01-13T03:12:47.148Z,99775.69
2019-01-13T03:15:19.926Z,99780.66
2019-01-13T03:17:48.887Z,99777.66
2019-01-13T03:20:17.570Z,99775.69
2019-01-13T03:22:46.070Z,99787.27
2019-01-13T03:25:16.724Z,99783.62
2019-01-13T03:27:45.229Z,99776.37
2019-01-13T03:30:19.044Z,99776.37
2019-01-13T03:32:47.556Z,99775.55
2019-01-13T03:35:16.773Z,99782.33
2019-01-13T03:37:45.375Z,99779.68
2019-01-13T03:40:16.411Z,99779.98
2019-01-13T03:42:45.183Z,99783.63
2019-01-13T03:45:13.926Z,99769.41
2019-01-13T03:47:42.407Z,99775.02
2019-01-13T03:50:16.426Z,99770.39
2019-01-13T03:52:52.437Z,99768.43
2019-01-13T03:55:16.293Z,99754.20
2019-01-13T03:57:44.845Z,99761.31
2019-01-13T04:00:16.026Z,99758.01
2019-01-13T04:02:44.612Z,99758.17
2019-01-13T04:05:13.506Z,99759.34
2019-01-13T04:07:41.959Z,99763.64
2019-01-13T04:10:12.700Z,99760.66
2019-01-13T04:12:41.227Z,99758.17
2019-01-13T04:15:12.843Z,99759.83
2019-01-13T04:17:41.430Z,99750.88
2019-01-13T04:20:10.039Z,99751.55
2019-01-13T04:22:38.605Z,99745.26
2019-01-13T04:25:07.361Z,99744.43
2019-01-13T04:27:35.958Z,99745.94
2019-01-13T04:30:07.798Z,99742.14
2019-01-13T04:32:36.278Z,99734.67
2019-01-13T04:35:07.200Z,99733.85
2019-01-13T04:37:35.785Z,99735.17
2019-01-13T04:40:07.646Z,99740.30
2019-01-13T04:42:36.251Z,99726.08
2019-01-13T04:45:07.169Z,99720.45
2019-01-13T04:47:35.650Z,99718.61
2019-01-13T04:50:07.437Z,99717.14
2019-01-13T04:52:36.037Z,99714.83
2019-01-13T04:55:06.146Z,99722.94
2019-01-13T04:57:34.589Z,99717.50
2019-01-13T05:00:04.646Z,99717.01
2019-01-13T05:02:33.191Z,99715.00
2019-01-13T05:05:01.761Z,99710.53
2019-01-13T05:07:30.206Z,99714.01
2019-01-13T05:09:58.768Z,99711.88
2019-01-13T05:12:27.899Z,99714.70
2019-01-13T05:14:56.514Z,99713.52
2019-01-13T05:17:24.987Z,99712.49
2019-01-13T05:19:53.545Z,99712.80
2019-01-13T05:22:22.428Z,99714.61
2019-01-13T05:24:51.296Z,99708.03
2019-01-13T05:27:19.888Z,99714.14
2019-01-13T05:29:48.441Z,99717.75
2019-01-13T05:32:16.979Z,99710.02
2019-01-13T05:34:45.433Z,99707.73
2019-01-13T05:37:13.984Z,99706.23
2019-01-13T05:39:42.506Z,99707.25
2019-01-13T05:42:11.459Z,99700.64
2019-01-13T05:44:40.231Z,99704.94
2019-01-13T05:47:08.780Z,99698.95
2019-01-13T05:49:37.302Z,99693.67
2019-01-13T05:52:06.007Z,99693.53
2019-01-13T05:54:34.518Z,99693.69
2019-01-13T05:57:03.190Z,99689.06
2019-01-13T05:59:31.770Z,99679.14
2019-01-13T06:02:00.386Z,99678.98
2019-01-13T06:04:28.972Z,99671.07
2019-01-13T06:06:57.438Z,99661.95
2019-01-13T06:09:26.005Z,99662.77
2019-01-13T06:11:54.516Z,99657.98
2019-01-13T06:14:23.072Z,99656.66
2019-01-13T06:16:51.590Z,99658.64
2019-01-13T06:19:20.219Z,99657.64
2019-01-13T06:21:48.777Z,99657.28
2019-01-13T06:24:17.392Z,99656.66
2019-01-13T06:26:46.182Z,99654.01
2019-01-13T06:29:14.672Z,99648.22
2019-01-13T06:31:43.198Z,99647.06
2019-01-13T06:34:11.783Z,99649.91
2019-01-13T06:36:40.447Z,99647.06
2019-01-13T06:39:09.403Z,99648.39
2019-01-13T06:41:37.968Z,99647.56
2019-01-13T06:44:06.442Z,99646.20
2019-01-13T06:46:35.167Z,99642.27
2019-01-13T06:49:04.257Z,99642.93
2019-01-13T06:51:32.805Z,99644.09
2019-01-13T06:54:01.456Z,99646.20
2019-01-13T06:56:32.311Z,99651.00
2019-01-13T06:59:00.852Z,99653.32
2019-01-13T07:01:29.538Z,99658.08
2019-01-13T07:03:58.024Z,99661.22
2019-01-13T07:06:26.640Z,99660.86
2019-01-13T07:08:55.125Z,99651.93
2019-01-13T07:11:23.583Z,99652.30
2019-01-13T07:13:52.050Z,99649.12
2019-01-13T07:16:20.721Z,99639.02
2019-01-13T07:18:49.230Z,99641.80
2019-01-13T07:21:18.137Z,99633.41
2019-01-13T07:23:46.972Z,99626.91
2019-01-13T07:26:15.492Z,99624.96
2019-01-13T07:28:43.984Z,99618.69
2019-01-13T07:31:12.631Z,99616.70
2019-01-13T07:33:41.088Z,99612.89
2019-01-13T07:36:09.642Z,99609.75
2019-01-13T07:38:38.169Z,99609.91
2019-01-13T07:41:06.941Z,99608.59
2019-01-13T07:43:35.477Z,99611.23
2019-01-13T07:46:04.001Z,99594.53
2019-01-13T07:48:32.454Z,99595.36
2019-01-13T07:51:01.011Z,99588.36
2019-01-13T07:53:29.801Z,99578.45
2019-01-13T07:55:58.486Z,99572.82
2019-01-13T07:58:27.145Z,99573.80
2019-01-13T08:00:55.950Z,99581.75
2019-01-13T08:03:26.051Z,99577.08
2019-01-13T08:05:54.559Z,99574.09
2019-01-13T08:08:23.038Z,99576.08
2019-01-13T08:10:51.780Z,99563.02
2019-01-13T08:13:20.431Z,99564.33
2019-01-13T08:15:48.936Z,99558.53
2019-01-13T08:18:17.763Z,99562.47
2019-01-13T08:20:46.312Z,99553.56
2019-01-13T08:23:14.753Z,99556.49
2019-01-13T08:25:43.371Z,99544.78
2019-01-13T08:28:11.920Z,99544.63
2019-01-13T08:30:40.462Z,99539.00
2019-01-13T08:33:09.025Z,99539.14
2019-01-13T08:35:37.589Z,99539.59
2019-01-13T08:38:06.736Z,99530.28
2019-01-13T08:40:35.339Z,99529.95
2019-01-13T08:43:03.877Z,99523.20
2019-01-13T08:45:32.545Z,99509.77
2019-01-13T08:48:01.184Z,99513.24
2019-01-13T08:50:30.002Z,99515.38
2019-01-13T08:52:58.775Z,99516.48
2019-01-13T08:55:27.380Z,99504.61
2019-01-13T08:57:55.958Z,99494.69
2019-01-13T09:00:26.685Z,99486.57
2019-01-13T09:02:55.203Z,99486.90
2019-01-13T09:05:23.955Z,99483.29
2019-01-13T09:07:52.878Z,99465.58
2019-01-13T09:10:21.607Z,99457.14
2019-01-13T09:12:56.659Z,99455.48
2019-01-13T09:15:22.770Z,99452.34
2019-01-13T09:17:51.562Z,99450.20
2019-01-13T09:20:24.954Z,99449.90
2019-01-13T09:22:53.546Z,99447.25
2019-01-13T09:25:22.226Z,99451.39
2019-01-13T09:27:50.823Z,99444.22
2019-01-13T09:30:22.351Z,99426.90
2019-01-13T09:32:51.015Z,99426.09
2019-01-13T09:35:20.130Z,99419.86
2019-01-13T09:37:49.296Z,99407.83
2019-01-13T09:40:21.098Z,99402.59
2019-01-13T09:42:49.669Z,99402.59
2019-01-13T09:45:18.332Z,99392.83
2019-01-13T09:47:46.885Z,99382.83
2019-01-13T09:50:20.331Z,99383.70
2019-01-13T09:52:48.982Z,99377.77
2019-01-13T09:55:19.516Z,99368.50
2019-01-13T09:57:48.422Z,99354.94
2019-01-13T10:00:20.066Z,99358.41
2019-01-13T10:02:50.122Z,99355.09
2019-01-13T10:05:18.594Z,99344.99
2019-01-13T10:07:47.208Z,99338.05
2019-01-13T10:10:15.856Z,99339.64
2019-01-13T10:12:44.516Z,99320.28
2019-01-13T10:15:16.130Z,99317.14
2019-01-13T10:17:44.768Z,99304.22
2019-01-13T10:20:15.546Z,99302.07
2019-01-13T10:22:46.992Z,99294.63
2019-01-13T10:25:15.822Z,99279.13
2019-01-13T10:27:44.396Z,99271.87
2019-01-13T10:30:18.704Z,99262.03
2019-01-13T10:32:54.378Z,99255.30
2019-01-13T10:35:17.941Z,99247.30
2019-01-13T10:37:49.401Z,99242.36
2019-01-13T10:40:23.007Z,99229.02
2019-01-13T10:42:51.868Z,99227.01
2019-01-13T10:45:20.583Z,99217.09
2019-01-13T10:47:49.173Z,99213.59
2019-01-13T10:50:22.819Z,99202.75
2019-01-13T10:52:51.544Z,99194.30
2019-01-13T10:55:20.149Z,99186.92
2019-01-13T10:57:48.605Z,99180.34
2019-01-13T11:00:26.049Z,99171.08
2019-01-13T11:03:01.725Z,99165.03
2019-01-13T11:05:25.084Z,99148.85
2019-01-13T11:07:54.460Z,99140.52
2019-01-13T11:10:23.316Z,99132.89
2019-01-13T11:12:51.892Z,99124.13
2019-01-13T11:15:21.725Z,99126.13
2019-01-13T11:17:50.588Z,99120.59
2019-01-13T11:20:27.956Z,99111.83
2019-01-13T11:22:56.703Z,99102.05
2019-01-13T11:25:25.256Z,99098.03
2019-01-13T11:27:53.989Z,99084.66
2019-01-13T11:30:25.090Z,99077.91
2019-01-13T11:32:53.807Z,99073.94
2019-01-13T11:35:22.546Z,99063.42
2019-01-13T11:37:51.185Z,99057.03
2019-01-13T11:40:24.983Z,99055.42
2019-01-13T11:42:53.684Z,99033.98
2019-01-13T11:45:22.333Z,99030.83
2019-01-13T11:47:50.963Z,99020.61
2019-01-13T11:50:24.307Z,99016.72
2019-01-13T11:52:52.883Z,99011.02
2019-01-13T11:55:22.009Z,98999.83
2019-01-13T11:57:50.611Z,98987.19
2019-01-13T12:00:24.936Z,98994.13
2019-01-13T12:02:53.543Z,98985.50
2019-01-13T12:05:22.273Z,98969.75
2019-01-13T12:07:51.005Z,98958.84
2019-01-13T12:10:22.864Z,98952.91
2019-01-13T12:12:51.520Z,98938.48
2019-01-13T12:15:21.475Z,98945.61
2019-01-13T12:17:50.120Z,98912.42
2019-01-13T12:20:21.210Z,98928.48
2019-01-13T12:22:50.002Z,98915.48
2019-01-13T12:25:20.469Z,98927.27
2019-01-13T12:27:49.040Z,98900.52
2019-01-13T12:30:20.810Z,98897.27
2019-01-13T12:32:49.259Z,98893.94
2019-01-13T12:35:17.988Z,98882.71
2019-01-13T12:37:46.513Z,98891.53
2019-01-13T12:40:17.301Z,98865.50
2019-01-13T12:42:46.178Z,98861.22
2019-01-13T12:45:19.668Z,98851.64
2019-01-13T12:47:48.351Z,98837.90
2019-01-13T12:50:22.738Z,98838.41
2019-01-13T12:52:51.457Z,98824.79
2019-01-13T12:55:19.982Z,98806.80
2019-01-13T12:57:48.563Z,98797.44
2019-01-13T13:00:18.856Z,98800.39
2019-01-13T13:02:47.573Z,98796.11
2019-01-13T13:05:16.866Z,98787.34
2019-01-13T13:07:46.073Z,98783.13
2019-01-13T13:10:26.927Z,98790.94
2019-01-13T13:12:55.588Z,98776.09
2019-01-13T13:15:24.227Z,98780.06
2019-01-13T13:17:52.761Z,98769.59
2019-01-13T13:20:21.647Z,98770.41
2019-01-13T13:22:50.268Z,98765.74
2019-01-13T13:25:18.845Z,98753.72
2019-01-13T13:27:47.792Z,98748.11
2019-01-13T13:30:19.336Z,98742.75
2019-01-13T13:32:48.056Z,98730.09
2019-01-13T13:35:17.148Z,98731.86
2019-01-13T13:37:45.886Z,98736.45
2019-01-13T13:40:17.491Z,98723.30
2019-01-13T13:42:46.181Z,98721.59
2019-01-13T13:45:14.766Z,98708.23
2019-01-13T13:47:43.676Z,98713.84
2019-01-13T13:50:21.236Z,98714.27
2019-01-13T13:52:49.855Z,98704.07
2019-01-13T13:55:18.685Z,98696.55
2019-01-13T13:57:47.325Z,98702.67
2019-01-13T14:00:18.892Z,98686.04
2019-01-13T14:02:47.567Z,98684.52
2019-01-13T14:05:16.320Z,98681.28
2019-01-13T14:07:45.219Z,98671.77
2019-01-13T14:10:22.452Z,98664.95
2019-01-13T14:12:51.099Z,98659.45
2019-01-13T14:15:19.687Z,98668.42
2019-01-13T14:17:48.331Z,98652.32
2019-01-13T14:20:20.342Z,98651.30
2019-01-13T14:22:48.976Z,98641.59
2019-01-13T14:25:17.563Z,98631.92
2019-01-13T14:27:46.145Z,98632.03
2019-01-13T14:30:17.391Z,98637.53
2019-01-13T14:32:46.013Z,98629.48
2019-01-13T14:35:14.583Z,98631.70
2019-01-13T14:37:43.628Z,98633.95
2019-01-13T14:40:15.282Z,98618.36
2019-01-13T14:42:44.135Z,98618.74
2019-01-13T14:45:15.169Z,98624.03
2019-01-13T14:47:43.732Z,98617.20
2019-01-13T14:50:15.568Z,98619.22
2019-01-13T14:52:44.218Z,98604.43
2019-01-13T14:55:12.953Z,98602.91
2019-01-13T14:57:41.499Z,98601.86
2019-01-13T15:00:13.387Z,98599.00
2019-01-13T15:02:41.883Z,98592.44
2019-01-13T15:05:12.464Z,98585.30
2019-01-13T15:07:41.182Z,98583.57
2019-01-13T15:10:12.648Z,98575.71
2019-01-13T15:12:41.618Z,98578.57
2019-01-13T15:15:12.617Z,98571.19
2019-01-13T15:17:41.489Z,98562.22
2019-01-13T15:20:16.147Z,98562.22
2019-01-13T15:22:44.992Z,98555.34
2019-01-13T15:25:16.517Z,98558.13
2019-01-13T15:27:49.821Z,98553.64
2019-01-13T15:30:20.898Z,98547.22
2019-01-13T15:32:49.558Z,98550.98
2019-01-13T15:35:18.182Z,98547.38
2019-01-13T15:37:46.834Z,98543.20
2019-01-13T15:40:17.545Z,98547.89
2019-01-13T15:42:46.200Z,98538.84
2019-01-13T15:45:15.866Z,98536.47
2019-01-13T15:47:44.500Z,98519.22
2019-01-13T15:50:18.091Z,98503.19
2019-01-13T15:52:46.680Z,98493.45
2019-01-13T15:55:15.392Z,98487.06
2019-01-13T15:57:44.001Z,98497.06
2019-01-13T16:00:15.462Z,98502.47
2019-01-13T16:02:44.088Z,98492.06
2019-01-13T16:05:12.760Z,98482.78
2019-01-13T16:07:41.366Z,98469.52
2019-01-13T16:10:12.958Z,98451.45
2019-01-13T16:12:41.599Z,98446.95
2019-01-13T16:15:11.851Z,98442.98
2019-01-13T16:17:40.357Z,98442.46
2019-01-13T16:20:20.707Z,98440.11
2019-01-13T16:22:49.248Z,98436.41
2019-01-13T16:25:17.873Z,98411.73
2019-01-13T16:27:46.624Z,98409.88
2019-01-13T16:30:23.697Z,98412.62
2019-01-13T16:32:52.341Z,98413.13
2019-01-13T16:35:20.862Z,98405.17
2019-01-13T16:37:49.452Z,98391.90
2019-01-13T16:40:19.749Z,98399.35
2019-01-13T16:42:48.574Z,98396.70
2019-01-13T16:45:17.859Z,98403.84
2019-01-13T16:47:47.487Z,98394.14
2019-01-13T16:50:17.917Z,98383.52
2019-01-13T16:52:48.854Z,98380.05
2019-01-13T16:55:17.735Z,98372.16
2019-01-13T16:57:46.249Z,98363.31
2019-01-13T17:00:17.915Z,98348.72
2019-01-13T17:02:46.719Z,98351.98
2019-01-13T17:05:17.220Z,98345.20
2019-01-13T17:07:45.899Z,98343.50
2019-01-13T17:10:16.718Z,98335.55
2019-01-13T17:12:45.358Z,98326.52
2019-01-13T17:15:15.881Z,98324.38
2019-01-13T17:17:44.753Z,98316.00
2019-01-13T17:20:18.179Z,98311.72
2019-01-13T17:22:46.812Z,98302.64
2019-01-13T17:25:17.685Z,98297.58
2019-01-13T17:27:46.308Z,98304.13
2019-01-13T17:30:18.284Z,98291.67
2019-01-13T17:32:46.888Z,98294.32
2019-01-13T17:35:15.539Z,98279.73
2019-01-13T17:37:44.078Z,98280.84
2019-01-13T17:40:17.731Z,98275.02
2019-01-13T17:42:46.348Z,98260.12
2019-01-13T17:45:16.940Z,98269.92
2019-01-13T17:47:45.968Z,98263.34
2019-01-13T17:50:19.603Z,98238.44
2019-01-13T17:52:48.253Z,98242.12
2019-01-13T17:55:19.134Z,98258.20
2019-01-13T17:57:47.813Z,98233.41
2019-01-13T18:00:21.916Z,98225.19
2019-01-13T18:02:50.356Z,98231.36
2019-01-13T18:05:19.117Z,98241.25
2019-01-13T18:07:47.614Z,98261.73
2019-01-13T18:10:16.148Z,98256.27
2019-01-13T18:12:44.621Z,98236.97
2019-01-13T18:15:13.471Z,98231.81
2019-01-13T18:17:41.996Z,98234.17
2019-01-13T18:20:13.606Z,98234.31
2019-01-13T18:22:42.263Z,98228.98
2019-01-13T18:25:11.108Z,98227.22
2019-01-13T18:27:39.705Z,98230.90
2019-01-13T18:30:17.153Z,98242.23
2019-01-13T18:32:45.810Z,98218.96
2019-01-13T18:35:16.548Z,98202.98
2019-01-13T18:37:45.267Z,98226.89
2019-01-13T18:40:16.340Z,98234.43
2019-01-13T18:42:44.983Z,98244.56
2019-01-13T18:45:13.872Z,98212.97
2019-01-13T18:47:42.447Z,98245.83
2019-01-13T18:50:16.358Z,98247.36
2019-01-13T18:52:47.483Z,98259.87
2019-01-13T18:55:16.280Z,98263.78
2019-01-13T18:57:44.944Z,98271.05
2019-01-13T19:00:19.173Z,98261.64
2019-01-13T19:02:47.861Z,98247.94
2019-01-13T19:05:18.247Z,98263.54
2019-01-13T19:07:46.804Z,98257.82
2019-01-13T19:10:21.786Z,98261.80
2019-01-13T19:12:53.420Z,98258.84
2019-01-13T19:15:22.116Z,98260.17
2019-01-13T19:17:52.529Z,98252.94
2019-01-13T19:20:21.203Z,98256.61
2019-01-13T19:22:49.796Z,98253.90
2019-01-13T19:25:18.687Z,98257.36
2019-01-13T19:27:47.199Z,98260.95
2019-01-13T19:30:16.475Z,98258.20
2019-01-13T19:32:45.074Z,98268.75
2019-01-13T19:35:15.808Z,98264.35
2019-01-13T19:37:44.363Z,98264.92
2019-01-13T19:40:15.041Z,98279.96
2019-01-13T19:42:43.641Z,98273.84
2019-01-13T19:45:14.952Z,98279.45
2019-01-13T19:47:43.610Z,98289.23
2019-01-13T19:50:23.448Z,98285.88
2019-01-13T19:52:52.080Z,98269.05
2019-01-13T19:55:21.092Z,98299.13
2019-01-13T19:57:49.872Z,98283.27
2019-01-13T20:00:24.004Z,98295.87
2019-01-13T20:02:52.707Z,98291.17
2019-01-13T20:05:22.589Z,98291.59
2019-01-13T20:07:51.513Z,98285.56
2019-01-13T20:10:21.127Z,98287.45
2019-01-13T20:12:49.743Z,98279.39
2019-01-13T20:15:20.781Z,98285.91
2019-01-13T20:17:49.810Z,98295.77
2019-01-13T20:20:19.810Z,98302.19
2019-01-13T20:22:48.622Z,98304.72
2019-01-13T20:25:18.558Z,98307.44
2019-01-13T20:27:47.505Z,98313.91
2019-01-13T20:30:20.867Z,98314.58
2019-01-13T20:32:49.674Z,98314.41
2019-01-13T20:35:19.302Z,98313.19
2019-01-13T20:37:48.228Z,98308.30
2019-01-13T20:40:17.517Z,98311.11
2019-01-13T20:42:46.052Z,98323.48
2019-01-13T20:45:23.384Z,98319.20
2019-01-13T20:47:52.065Z,98323.85
2019-01-13T20:50:20.553Z,98319.81
2019-01-13T20:52:49.201Z,98307.78
2019-01-13T20:55:17.854Z,98310.06
2019-01-13T20:57:46.577Z,98300.29
2019-01-13T21:00:23.700Z,98302.83
2019-01-13T21:02:52.462Z,98299.67
2019-01-13T21:05:26.546Z,98309.56
2019-01-13T21:07:51.625Z,98295.84
2019-01-13T21:10:21.267Z,98309.87
2019-01-13T21:12:50.023Z,98308.37
2019-01-13T21:15:26.819Z,98308.58
2019-01-13T21:17:57.584Z,98311.13
2019-01-13T21:20:25.631Z,98316.16
2019-01-13T21:22:54.225Z,98307.53
2019-01-13T21:25:22.823Z,98301.83
2019-01-13T21:27:51.884Z,98315.48
2019-01-13T21:30:29.230Z,98307.23
2019-01-13T21:32:57.977Z,98319.98
2019-01-13T21:35:33.501Z,98306.75
2019-01-13T21:37:56.905Z,98323.28
2019-01-13T21:40:25.519Z,98327.77
2019-01-13T21:42:54.093Z,98309.02
2019-01-13T21:45:23.758Z,98326.53
2019-01-13T21:47:52.369Z,98329.39
2019-01-13T21:50:22.832Z,98331.20
2019-01-13T21:52:51.572Z,98326.10
2019-01-13T21:55:20.543Z,98323.63
2019-01-13T21:57:49.203Z,98320.57
2019-01-13T22:00:20.069Z,98328.48
2019-01-13T22:02:48.665Z,98328.38
2019-01-13T22:05:17.281Z,98328.08
2019-01-13T22:07:45.886Z,98334.36
2019-01-13T22:10:18.444Z,98323.05
2019-01-13T22:12:47.078Z,98330.28
2019-01-13T22:15:17.381Z,98322.95
2019-01-13T22:17:46.012Z,98327.47
2019-01-13T22:20:21.746Z,98323.59
2019-01-13T22:22:50.851Z,98337.99
2019-01-13T22:25:19.427Z,98325.87
2019-01-13T22:27:47.940Z,98312.73
2019-01-13T22:30:18.430Z,98312.08
2019-01-13T22:32:47.054Z,98307.59
2019-01-13T22:35:15.779Z,98323.66
2019-01-13T22:37:44.433Z,98317.89
2019-01-13T22:40:14.953Z,98327.02
2019-01-13T22:42:43.505Z,98319.11
2019-01-13T22:45:17.312Z,98319.92
2019-01-13T22:47:46.098Z,98323.59
2019-01-13T22:50:15.977Z,98339.45
2019-01-13T22:52:44.653Z,98336.60
2019-01-13T22:55:13.272Z,98355.77
2019-01-13T22:57:42.000Z,98345.57
2019-01-13T23:00:38.328Z,98353.83
2019-01-13T23:03:08.526Z,98358.92
2019-01-13T23:05:37.344Z,98347.87
2019-01-13T23:08:05.910Z,98331.06
2019-01-13T23:10:34.534Z,98351.38
2019-01-13T23:13:03.063Z,98345.16
2019-01-13T23:15:31.544Z,98344.45
2019-01-13T23:18:00.023Z,98343.36
2019-01-13T23:20:28.596Z,98341.59
2019-01-13T23:22:57.130Z,98347.84
2019-01-13T23:25:25.577Z,98349.30
2019-01-13T23:27:54.107Z,98353.41
2019-01-13T23:30:22.581Z,98362.95
2019-01-13T23:32:51.229Z,98377.86
2019-01-13T23:35:19.764Z,98370.52
2019-01-13T23:37:48.398Z,98385.59
2019-01-13T23:40:16.956Z,98386.03
2019-01-13T23:42:45.614Z,98374.81
2019-01-13T23:45:14.161Z,98402.94
2019-01-13T23:47:42.654Z,98402.81
2019-01-13T23:50:11.448Z,98416.36
2019-01-13T23:52:40.001Z,98399.63
2019-01-13T23:55:08.602Z,98410.45
2019-01-13T23:57:37.155Z,98424.92
